sensor_id;sensor_type;location;lat;lon;timestamp;temperature;humidity
31309;DHT22;17936;52.446;10.840;2022-07-29T00:01:24;14.10;1.00
31309;DHT22;17936;52.446;10.840;2022-07-29T00:03:50;14.00;1.00
31309;DHT22;17936;52.446;10.840;2022-07-29T00:06:16;14.20;1.00
31309;DHT22;17936;52.446;10.840;2022-07-29T00:08:41;14.40;1.00
31309;DHT22;17936;52.446;10.840;2022-07-29T00:11:07;14.40;1.00
31309;DHT22;17936;52.446;10.840;2022-07-29T00:13:32;14.10;1.00
31309;DHT22;17936;52.446;10.840;2022-07-29T00:15:58;14.20;1.00
31309;DHT22;17936;52.446;10.840;2022-07-29T00:18:24;14.30;1.00
31309;DHT22;17936;52.446;10.840;2022-07-29T00:20:49;14.40;1.00
31309;DHT22;17936;52.446;10.840;2022-07-29T00:23:15;14.10;1.00
31309;DHT22;17936;52.446;10.840;2022-07-29T00:25:40;13.50;2.20
31309;DHT22;17936;52.446;10.840;2022-07-29T00:28:06;13.70;3.30
31309;DHT22;17936;52.446;10.840;2022-07-29T00:30:31;14.00;1.00
31309;DHT22;17936;52.446;10.840;2022-07-29T00:32:57;14.20;1.00
31309;DHT22;17936;52.446;10.840;2022-07-29T00:35:23;14.10;1.00
31309;DHT22;17936;52.446;10.840;2022-07-29T00:38:07;14.10;1.00
31309;DHT22;17936;52.446;10.840;2022-07-29T00:40:32;14.20;1.00
31309;DHT22;17936;52.446;10.840;2022-07-29T00:42:58;13.90;2.00
31309;DHT22;17936;52.446;10.840;2022-07-29T00:45:23;13.90;1.00
31309;DHT22;17936;52.446;10.840;2022-07-29T00:47:49;13.50;16.40
31309;DHT22;17936;52.446;10.840;2022-07-29T00:50:14;13.60;20.10
31309;DHT22;17936;52.446;10.840;2022-07-29T00:52:41;13.90;8.50
31309;DHT22;17936;52.446;10.840;2022-07-29T00:55:10;14.00;1.50
31309;DHT22;17936;52.446;10.840;2022-07-29T00:57:36;14.10;1.10
31309;DHT22;17936;52.446;10.840;2022-07-29T01:00:06;14.10;1.00
31309;DHT22;17936;52.446;10.840;2022-07-29T01:02:32;14.10;1.00
31309;DHT22;17936;52.446;10.840;2022-07-29T01:04:58;13.60;11.20
31309;DHT22;17936;52.446;10.840;2022-07-29T01:07:25;13.60;20.80
31309;DHT22;17936;52.446;10.840;2022-07-29T01:09:52;13.90;7.20
31309;DHT22;17936;52.446;10.840;2022-07-29T01:12:22;14.10;1.00
31309;DHT22;17936;52.446;10.840;2022-07-29T01:14:48;13.60;15.40
31309;DHT22;17936;52.446;10.840;2022-07-29T01:17:21;13.50;18.30
31309;DHT22;17936;52.446;10.840;2022-07-29T01:20:22;13.50;14.60
31309;DHT22;17936;52.446;10.840;2022-07-29T01:23:06;13.40;24.50
31309;DHT22;17936;52.446;10.840;2022-07-29T01:25:58;13.70;13.00
31309;DHT22;17936;52.446;10.840;2022-07-29T01:28:47;13.30;27.90
31309;DHT22;17936;52.446;10.840;2022-07-29T01:31:16;13.60;20.40
31309;DHT22;17936;52.446;10.840;2022-07-29T01:33:46;13.50;19.80
31309;DHT22;17936;52.446;10.840;2022-07-29T01:36:30;13.80;16.80
31309;DHT22;17936;52.446;10.840;2022-07-29T01:39:10;13.80;7.90
31309;DHT22;17936;52.446;10.840;2022-07-29T01:41:40;13.80;13.20
31309;DHT22;17936;52.446;10.840;2022-07-29T01:44:22;13.80;6.40
31309;DHT22;17936;52.446;10.840;2022-07-29T01:46:54;13.90;2.50
31309;DHT22;17936;52.446;10.840;2022-07-29T01:49:25;13.50;14.60
31309;DHT22;17936;52.446;10.840;2022-07-29T01:51:59;13.20;34.40
31309;DHT22;17936;52.446;10.840;2022-07-29T01:54:34;13.50;23.70
31309;DHT22;17936;52.446;10.840;2022-07-29T01:57:01;13.60;15.60
31309;DHT22;17936;52.446;10.840;2022-07-29T01:59:29;13.30;23.60
31309;DHT22;17936;52.446;10.840;2022-07-29T02:01:58;13.40;23.90
31309;DHT22;17936;52.446;10.840;2022-07-29T02:04:25;13.50;24.20
31309;DHT22;17936;52.446;10.840;2022-07-29T02:06:53;13.40;22.70
31309;DHT22;17936;52.446;10.840;2022-07-29T02:09:20;13.60;19.50
31309;DHT22;17936;52.446;10.840;2022-07-29T02:11:53;13.50;21.30
31309;DHT22;17936;52.446;10.840;2022-07-29T02:14:20;13.60;20.90
31309;DHT22;17936;52.446;10.840;2022-07-29T02:16:48;13.70;19.60
31309;DHT22;17936;52.446;10.840;2022-07-29T02:19:17;13.50;22.80
31309;DHT22;17936;52.446;10.840;2022-07-29T02:21:44;13.60;23.60
31309;DHT22;17936;52.446;10.840;2022-07-29T02:24:11;13.60;24.60
31309;DHT22;17936;52.446;10.840;2022-07-29T02:26:37;13.50;25.40
31309;DHT22;17936;52.446;10.840;2022-07-29T02:29:03;13.70;26.40
31309;DHT22;17936;52.446;10.840;2022-07-29T02:31:33;13.80;25.00
31309;DHT22;17936;52.446;10.840;2022-07-29T02:34:04;13.50;23.60
31309;DHT22;17936;52.446;10.840;2022-07-29T02:36:32;13.30;38.30
31309;DHT22;17936;52.446;10.840;2022-07-29T02:38:58;13.60;31.60
31309;DHT22;17936;52.446;10.840;2022-07-29T02:41:32;13.60;28.50
31309;DHT22;17936;52.446;10.840;2022-07-29T02:44:05;13.40;35.80
31309;DHT22;17936;52.446;10.840;2022-07-29T02:46:33;13.50;36.10
31309;DHT22;17936;52.446;10.840;2022-07-29T02:49:15;13.60;29.70
31309;DHT22;17936;52.446;10.840;2022-07-29T02:51:49;13.50;30.70
31309;DHT22;17936;52.446;10.840;2022-07-29T02:57:31;13.30;41.70
31309;DHT22;17936;52.446;10.840;2022-07-29T03:00:03;13.30;44.50
31309;DHT22;17936;52.446;10.840;2022-07-29T03:02:33;13.20;45.30
31309;DHT22;17936;52.446;10.840;2022-07-29T03:04:59;13.30;40.80
31309;DHT22;17936;52.446;10.840;2022-07-29T03:07:27;13.30;41.80
31309;DHT22;17936;52.446;10.840;2022-07-29T03:09:53;13.20;50.90
31309;DHT22;17936;52.446;10.840;2022-07-29T03:12:19;13.20;47.60
31309;DHT22;17936;52.446;10.840;2022-07-29T03:14:46;13.00;60.10
31309;DHT22;17936;52.446;10.840;2022-07-29T03:17:12;13.00;62.60
31309;DHT22;17936;52.446;10.840;2022-07-29T03:19:39;13.00;65.60
31309;DHT22;17936;52.446;10.840;2022-07-29T03:22:04;13.20;59.20
31309;DHT22;17936;52.446;10.840;2022-07-29T03:24:33;13.10;65.70
31309;DHT22;17936;52.446;10.840;2022-07-29T03:26:59;13.10;62.00
31309;DHT22;17936;52.446;10.840;2022-07-29T03:29:25;13.20;60.00
31309;DHT22;17936;52.446;10.840;2022-07-29T03:31:51;13.10;67.80
31309;DHT22;17936;52.446;10.840;2022-07-29T03:34:16;12.90;71.80
31309;DHT22;17936;52.446;10.840;2022-07-29T03:36:42;13.00;70.90
31309;DHT22;17936;52.446;10.840;2022-07-29T03:39:08;13.00;71.80
31309;DHT22;17936;52.446;10.840;2022-07-29T03:41:35;13.10;72.70
31309;DHT22;17936;52.446;10.840;2022-07-29T03:44:02;13.10;70.00
31309;DHT22;17936;52.446;10.840;2022-07-29T03:46:29;13.00;72.30
31309;DHT22;17936;52.446;10.840;2022-07-29T03:49:01;13.20;66.10
31309;DHT22;17936;52.446;10.840;2022-07-29T03:51:28;13.20;69.00
31309;DHT22;17936;52.446;10.840;2022-07-29T03:53:54;13.20;70.40
31309;DHT22;17936;52.446;10.840;2022-07-29T03:56:21;13.30;67.10
31309;DHT22;17936;52.446;10.840;2022-07-29T03:58:50;13.00;75.10
31309;DHT22;17936;52.446;10.840;2022-07-29T04:01:17;13.00;78.80
31309;DHT22;17936;52.446;10.840;2022-07-29T04:03:44;13.00;77.60
31309;DHT22;17936;52.446;10.840;2022-07-29T04:06:11;13.00;79.20
31309;DHT22;17936;52.446;10.840;2022-07-29T04:08:36;13.20;76.00
31309;DHT22;17936;52.446;10.840;2022-07-29T04:11:02;12.90;82.10
31309;DHT22;17936;52.446;10.840;2022-07-29T04:13:28;12.80;88.80
31309;DHT22;17936;52.446;10.840;2022-07-29T04:15:53;12.90;88.30
31309;DHT22;17936;52.446;10.840;2022-07-29T04:18:19;13.10;83.20
31309;DHT22;17936;52.446;10.840;2022-07-29T04:20:45;12.80;89.90
31309;DHT22;17936;52.446;10.840;2022-07-29T04:23:10;12.90;90.30
31309;DHT22;17936;52.446;10.840;2022-07-29T04:25:40;13.00;89.40
31309;DHT22;17936;52.446;10.840;2022-07-29T04:28:06;13.00;88.90
31309;DHT22;17936;52.446;10.840;2022-07-29T04:30:33;13.10;88.90
31309;DHT22;17936;52.446;10.840;2022-07-29T04:33:01;13.10;88.80
31309;DHT22;17936;52.446;10.840;2022-07-29T04:35:28;13.30;85.60
31309;DHT22;17936;52.446;10.840;2022-07-29T04:37:54;13.50;75.70
31309;DHT22;17936;52.446;10.840;2022-07-29T04:40:20;13.30;84.20
31309;DHT22;17936;52.446;10.840;2022-07-29T04:42:45;13.40;79.70
31309;DHT22;17936;52.446;10.840;2022-07-29T04:45:11;13.50;77.20
31309;DHT22;17936;52.446;10.840;2022-07-29T04:47:36;13.40;85.30
31309;DHT22;17936;52.446;10.840;2022-07-29T04:50:02;13.50;82.90
31309;DHT22;17936;52.446;10.840;2022-07-29T04:52:28;13.60;77.40
31309;DHT22;17936;52.446;10.840;2022-07-29T04:54:53;13.40;84.60
31309;DHT22;17936;52.446;10.840;2022-07-29T04:57:19;13.40;85.30
31309;DHT22;17936;52.446;10.840;2022-07-29T04:59:44;13.50;84.20
31309;DHT22;17936;52.446;10.840;2022-07-29T05:02:10;13.60;84.20
31309;DHT22;17936;52.446;10.840;2022-07-29T05:04:35;13.70;81.80
31309;DHT22;17936;52.446;10.840;2022-07-29T05:07:01;13.70;79.40
31309;DHT22;17936;52.446;10.840;2022-07-29T05:09:26;13.70;81.10
31309;DHT22;17936;52.446;10.840;2022-07-29T05:11:52;13.80;80.40
31309;DHT22;17936;52.446;10.840;2022-07-29T05:14:17;13.60;84.10
31309;DHT22;17936;52.446;10.840;2022-07-29T05:16:43;13.70;83.60
31309;DHT22;17936;52.446;10.840;2022-07-29T05:19:08;14.00;82.30
31309;DHT22;17936;52.446;10.840;2022-07-29T05:21:34;14.10;74.90
31309;DHT22;17936;52.446;10.840;2022-07-29T05:23:59;14.00;73.20
31309;DHT22;17936;52.446;10.840;2022-07-29T05:26:25;14.00;78.40
31309;DHT22;17936;52.446;10.840;2022-07-29T05:28:51;14.00;78.40
31309;DHT22;17936;52.446;10.840;2022-07-29T05:31:16;13.90;81.80
31309;DHT22;17936;52.446;10.840;2022-07-29T05:33:42;14.10;79.90
31309;DHT22;17936;52.446;10.840;2022-07-29T05:36:07;14.20;74.90
31309;DHT22;17936;52.446;10.840;2022-07-29T05:38:34;14.10;81.30
31309;DHT22;17936;52.446;10.840;2022-07-29T05:40:59;14.00;84.30
31309;DHT22;17936;52.446;10.840;2022-07-29T05:43:26;14.20;79.20
31309;DHT22;17936;52.446;10.840;2022-07-29T05:45:52;14.40;78.90
31309;DHT22;17936;52.446;10.840;2022-07-29T05:48:17;14.60;71.40
31309;DHT22;17936;52.446;10.840;2022-07-29T05:50:43;14.60;70.00
31309;DHT22;17936;52.446;10.840;2022-07-29T05:53:08;14.50;72.10
31309;DHT22;17936;52.446;10.840;2022-07-29T05:55:34;14.70;67.00
31309;DHT22;17936;52.446;10.840;2022-07-29T05:57:59;14.80;69.00
31309;DHT22;17936;52.446;10.840;2022-07-29T06:00:25;14.50;71.30
31309;DHT22;17936;52.446;10.840;2022-07-29T06:02:50;14.60;79.80
31309;DHT22;17936;52.446;10.840;2022-07-29T06:05:16;14.70;78.20
31309;DHT22;17936;52.446;10.840;2022-07-29T06:07:42;14.90;74.40
31309;DHT22;17936;52.446;10.840;2022-07-29T06:10:08;14.90;70.90
31309;DHT22;17936;52.446;10.840;2022-07-29T06:12:34;14.80;72.50
31309;DHT22;17936;52.446;10.840;2022-07-29T06:14:59;14.70;81.80
31309;DHT22;17936;52.446;10.840;2022-07-29T06:17:25;14.80;76.60
31309;DHT22;17936;52.446;10.840;2022-07-29T06:19:50;14.80;73.80
31309;DHT22;17936;52.446;10.840;2022-07-29T06:22:16;14.70;80.00
31309;DHT22;17936;52.446;10.840;2022-07-29T06:24:42;14.80;80.70
31309;DHT22;17936;52.446;10.840;2022-07-29T06:27:10;14.70;84.60
31309;DHT22;17936;52.446;10.840;2022-07-29T06:29:35;15.10;77.80
31309;DHT22;17936;52.446;10.840;2022-07-29T06:32:01;15.30;67.00
31309;DHT22;17936;52.446;10.840;2022-07-29T06:34:27;15.30;68.60
31309;DHT22;17936;52.446;10.840;2022-07-29T06:36:53;15.50;61.10
31309;DHT22;17936;52.446;10.840;2022-07-29T06:39:18;15.50;56.10
31309;DHT22;17936;52.446;10.840;2022-07-29T06:41:49;15.70;59.10
31309;DHT22;17936;52.446;10.840;2022-07-29T06:44:26;15.70;57.80
31309;DHT22;17936;52.446;10.840;2022-07-29T06:46:51;15.60;60.10
31309;DHT22;17936;52.446;10.840;2022-07-29T06:49:18;15.80;55.60
31309;DHT22;17936;52.446;10.840;2022-07-29T06:51:43;16.10;57.30
31309;DHT22;17936;52.446;10.840;2022-07-29T06:54:09;16.60;36.00
31309;DHT22;17936;52.446;10.840;2022-07-29T06:56:35;16.70;30.10
31309;DHT22;17936;52.446;10.840;2022-07-29T06:59:04;16.50;29.20
31309;DHT22;17936;52.446;10.840;2022-07-29T07:01:29;16.70;33.30
31309;DHT22;17936;52.446;10.840;2022-07-29T07:03:55;17.10;26.30
31309;DHT22;17936;52.446;10.840;2022-07-29T07:06:21;16.90;21.40
31309;DHT22;17936;52.446;10.840;2022-07-29T07:08:46;17.00;24.10
31309;DHT22;17936;52.446;10.840;2022-07-29T07:11:12;16.80;24.80
31309;DHT22;17936;52.446;10.840;2022-07-29T07:13:37;16.70;35.50
31309;DHT22;17936;52.446;10.840;2022-07-29T07:16:03;16.90;31.10
31309;DHT22;17936;52.446;10.840;2022-07-29T07:18:29;16.90;33.50
31309;DHT22;17936;52.446;10.840;2022-07-29T07:20:56;16.90;24.50
31309;DHT22;17936;52.446;10.840;2022-07-29T07:23:21;16.70;28.20
31309;DHT22;17936;52.446;10.840;2022-07-29T07:25:47;17.00;23.30
31309;DHT22;17936;52.446;10.840;2022-07-29T07:28:12;16.90;28.90
31309;DHT22;17936;52.446;10.840;2022-07-29T07:30:38;16.70;35.50
31309;DHT22;17936;52.446;10.840;2022-07-29T07:33:04;17.10;20.10
31309;DHT22;17936;52.446;10.840;2022-07-29T07:35:30;17.00;26.40
31309;DHT22;17936;52.446;10.840;2022-07-29T07:37:56;17.30;23.30
31309;DHT22;17936;52.446;10.840;2022-07-29T07:40:22;17.50;8.30
31309;DHT22;17936;52.446;10.840;2022-07-29T07:42:47;17.50;15.60
31309;DHT22;17936;52.446;10.840;2022-07-29T07:45:13;17.90;7.70
31309;DHT22;17936;52.446;10.840;2022-07-29T07:47:39;18.60;1.00
31309;DHT22;17936;52.446;10.840;2022-07-29T07:50:07;19.10;1.00
31309;DHT22;17936;52.446;10.840;2022-07-29T07:52:32;19.30;1.00
31309;DHT22;17936;52.446;10.840;2022-07-29T07:54:59;19.60;99.90
31309;DHT22;17936;52.446;10.840;2022-07-29T07:57:24;19.70;99.90
31309;DHT22;17936;52.446;10.840;2022-07-29T07:59:49;20.10;99.90
31309;DHT22;17936;52.446;10.840;2022-07-29T08:02:15;20.10;99.90
31309;DHT22;17936;52.446;10.840;2022-07-29T08:04:41;19.80;99.90
31309;DHT22;17936;52.446;10.840;2022-07-29T08:07:08;19.60;99.90
31309;DHT22;17936;52.446;10.840;2022-07-29T08:09:35;19.00;99.90
31309;DHT22;17936;52.446;10.840;2022-07-29T08:12:03;19.60;99.90
31309;DHT22;17936;52.446;10.840;2022-07-29T08:14:30;20.10;99.90
31309;DHT22;17936;52.446;10.840;2022-07-29T08:16:55;20.60;83.40
31309;DHT22;17936;52.446;10.840;2022-07-29T08:19:21;20.70;89.30
31309;DHT22;17936;52.446;10.840;2022-07-29T08:21:49;21.00;99.90
31309;DHT22;17936;52.446;10.840;2022-07-29T08:24:15;21.80;99.90
31309;DHT22;17936;52.446;10.840;2022-07-29T08:26:59;22.60;99.90
31309;DHT22;17936;52.446;10.840;2022-07-29T08:29:24;22.70;99.90
31309;DHT22;17936;52.446;10.840;2022-07-29T08:31:50;22.30;99.90
31309;DHT22;17936;52.446;10.840;2022-07-29T08:34:15;21.50;99.90
31309;DHT22;17936;52.446;10.840;2022-07-29T08:36:41;21.30;99.90
31309;DHT22;17936;52.446;10.840;2022-07-29T08:39:06;21.50;1.00
31309;DHT22;17936;52.446;10.840;2022-07-29T08:41:32;21.50;99.90
31309;DHT22;17936;52.446;10.840;2022-07-29T08:43:58;21.60;99.90
31309;DHT22;17936;52.446;10.840;2022-07-29T08:46:24;21.60;99.90
31309;DHT22;17936;52.446;10.840;2022-07-29T08:48:49;21.30;1.00
31309;DHT22;17936;52.446;10.840;2022-07-29T08:51:18;21.00;17.20
31309;DHT22;17936;52.446;10.840;2022-07-29T08:53:45;21.10;99.90
31309;DHT22;17936;52.446;10.840;2022-07-29T08:56:14;21.70;1.00
31309;DHT22;17936;52.446;10.840;2022-07-29T08:58:40;21.70;99.90
31309;DHT22;17936;52.446;10.840;2022-07-29T09:01:06;21.80;1.00
31309;DHT22;17936;52.446;10.840;2022-07-29T09:03:34;22.00;99.90
31309;DHT22;17936;52.446;10.840;2022-07-29T09:06:01;22.20;81.40
31309;DHT22;17936;52.446;10.840;2022-07-29T09:08:27;22.50;1.00
31309;DHT22;17936;52.446;10.840;2022-07-29T09:10:54;22.90;99.90
31309;DHT22;17936;52.446;10.840;2022-07-29T09:13:22;23.00;99.90
31309;DHT22;17936;52.446;10.840;2022-07-29T09:15:47;22.70;1.00
31309;DHT22;17936;52.446;10.840;2022-07-29T09:18:33;23.00;88.80
31309;DHT22;17936;52.446;10.840;2022-07-29T09:21:00;23.20;99.90
31309;DHT22;17936;52.446;10.840;2022-07-29T09:24:09;23.10;99.90
31309;DHT22;17936;52.446;10.840;2022-07-29T09:26:39;23.30;15.70
31309;DHT22;17936;52.446;10.840;2022-07-29T09:29:14;23.00;99.90
31309;DHT22;17936;52.446;10.840;2022-07-29T09:31:42;23.30;99.90
31309;DHT22;17936;52.446;10.840;2022-07-29T09:34:09;24.20;88.30
31309;DHT22;17936;52.446;10.840;2022-07-29T09:36:39;23.40;99.90
31309;DHT22;17936;52.446;10.840;2022-07-29T09:39:05;23.20;26.60
31309;DHT22;17936;52.446;10.840;2022-07-29T09:41:50;23.70;1.00
31309;DHT22;17936;52.446;10.840;2022-07-29T09:44:18;23.80;99.90
31309;DHT22;17936;52.446;10.840;2022-07-29T09:47:00;23.80;1.00
31309;DHT22;17936;52.446;10.840;2022-07-29T09:49:34;24.60;99.90
31309;DHT22;17936;52.446;10.840;2022-07-29T09:52:04;24.80;28.90
31309;DHT22;17936;52.446;10.840;2022-07-29T09:54:31;24.90;47.30
31309;DHT22;17936;52.446;10.840;2022-07-29T09:57:06;24.60;30.20
31309;DHT22;17936;52.446;10.840;2022-07-29T09:59:33;25.30;99.90
31309;DHT22;17936;52.446;10.840;2022-07-29T10:01:59;25.10;1.00
31309;DHT22;17936;52.446;10.840;2022-07-29T10:04:37;25.00;99.90
31309;DHT22;17936;52.446;10.840;2022-07-29T10:07:03;25.10;99.90
31309;DHT22;17936;52.446;10.840;2022-07-29T10:09:30;24.30;99.90
31309;DHT22;17936;52.446;10.840;2022-07-29T10:12:04;24.70;99.90
31309;DHT22;17936;52.446;10.840;2022-07-29T10:14:31;24.60;99.90
31309;DHT22;17936;52.446;10.840;2022-07-29T10:16:59;24.20;99.90
31309;DHT22;17936;52.446;10.840;2022-07-29T10:19:25;24.40;99.90
31309;DHT22;17936;52.446;10.840;2022-07-29T10:21:51;24.80;99.90
31309;DHT22;17936;52.446;10.840;2022-07-29T10:24:17;24.90;99.90
31309;DHT22;17936;52.446;10.840;2022-07-29T10:26:43;25.90;99.90
31309;DHT22;17936;52.446;10.840;2022-07-29T10:29:11;25.60;99.90
31309;DHT22;17936;52.446;10.840;2022-07-29T10:32:06;25.90;99.90
31309;DHT22;17936;52.446;10.840;2022-07-29T10:40:43;26.80;99.90
31309;DHT22;17936;52.446;10.840;2022-07-29T10:43:32;26.70;99.90
31309;DHT22;17936;52.446;10.840;2022-07-29T10:46:01;27.90;99.90
31309;DHT22;17936;52.446;10.840;2022-07-29T10:48:27;28.30;99.90
31309;DHT22;17936;52.446;10.840;2022-07-29T10:51:00;28.70;99.90
31309;DHT22;17936;52.446;10.840;2022-07-29T10:53:47;28.70;99.90
31309;DHT22;17936;52.446;10.840;2022-07-29T10:56:32;28.50;99.90
31309;DHT22;17936;52.446;10.840;2022-07-29T10:59:30;28.60;99.20
31309;DHT22;17936;52.446;10.840;2022-07-29T11:01:56;27.60;77.10
31309;DHT22;17936;52.446;10.840;2022-07-29T11:07:10;26.90;1.10
31309;DHT22;17936;52.446;10.840;2022-07-29T11:09:37;26.90;1.00
31309;DHT22;17936;52.446;10.840;2022-07-29T11:12:04;26.90;1.00
31309;DHT22;17936;52.446;10.840;2022-07-29T11:14:55;26.70;1.00
31309;DHT22;17936;52.446;10.840;2022-07-29T11:17:21;27.30;1.00
31309;DHT22;17936;52.446;10.840;2022-07-29T11:19:47;27.60;1.00
31309;DHT22;17936;52.446;10.840;2022-07-29T11:22:32;27.10;1.00
31309;DHT22;17936;52.446;10.840;2022-07-29T11:25:16;26.40;1.00
31309;DHT22;17936;52.446;10.840;2022-07-29T11:27:42;26.10;1.00
31309;DHT22;17936;52.446;10.840;2022-07-29T11:30:08;26.30;1.00
31309;DHT22;17936;52.446;10.840;2022-07-29T11:32:43;26.20;1.00
31309;DHT22;17936;52.446;10.840;2022-07-29T11:35:20;26.60;1.00
31309;DHT22;17936;52.446;10.840;2022-07-29T11:41:22;26.60;1.00
31309;DHT22;17936;52.446;10.840;2022-07-29T11:43:50;26.60;1.00
31309;DHT22;17936;52.446;10.840;2022-07-29T11:49:03;26.50;1.00
31309;DHT22;17936;52.446;10.840;2022-07-29T11:51:30;26.40;1.00
31309;DHT22;17936;52.446;10.840;2022-07-29T11:53:57;26.20;99.90
31309;DHT22;17936;52.446;10.840;2022-07-29T11:56:23;26.30;1.00
31309;DHT22;17936;52.446;10.840;2022-07-29T11:59:02;26.50;1.00
31309;DHT22;17936;52.446;10.840;2022-07-29T12:01:28;26.70;1.00
31309;DHT22;17936;52.446;10.840;2022-07-29T12:04:03;26.70;99.90
31309;DHT22;17936;52.446;10.840;2022-07-29T12:06:29;26.90;99.90
31309;DHT22;17936;52.446;10.840;2022-07-29T12:08:55;26.60;99.90
31309;DHT22;17936;52.446;10.840;2022-07-29T12:11:20;26.70;99.90
31309;DHT22;17936;52.446;10.840;2022-07-29T12:13:46;26.60;99.90
31309;DHT22;17936;52.446;10.840;2022-07-29T12:16:11;26.70;99.90
31309;DHT22;17936;52.446;10.840;2022-07-29T12:18:37;26.50;99.90
31309;DHT22;17936;52.446;10.840;2022-07-29T12:21:03;26.40;99.90
31309;DHT22;17936;52.446;10.840;2022-07-29T12:23:32;26.50;99.90
31309;DHT22;17936;52.446;10.840;2022-07-29T12:25:58;26.40;99.90
31309;DHT22;17936;52.446;10.840;2022-07-29T12:28:24;26.30;99.90
31309;DHT22;17936;52.446;10.840;2022-07-29T12:30:50;26.40;99.90
31309;DHT22;17936;52.446;10.840;2022-07-29T12:33:20;26.50;99.90
31309;DHT22;17936;52.446;10.840;2022-07-29T12:36:15;26.70;99.90
31309;DHT22;17936;52.446;10.840;2022-07-29T12:38:41;26.60;99.90
31309;DHT22;17936;52.446;10.840;2022-07-29T12:41:07;26.70;99.90
31309;DHT22;17936;52.446;10.840;2022-07-29T12:43:32;26.70;99.90
31309;DHT22;17936;52.446;10.840;2022-07-29T12:46:14;26.80;99.90
31309;DHT22;17936;52.446;10.840;2022-07-29T12:48:41;26.70;99.90
31309;DHT22;17936;52.446;10.840;2022-07-29T12:51:08;26.70;99.90
31309;DHT22;17936;52.446;10.840;2022-07-29T12:53:35;26.70;99.90
31309;DHT22;17936;52.446;10.840;2022-07-29T12:56:02;27.00;99.90
31309;DHT22;17936;52.446;10.840;2022-07-29T13:01:14;27.00;99.90
31309;DHT22;17936;52.446;10.840;2022-07-29T13:03:48;27.20;99.90
31309;DHT22;17936;52.446;10.840;2022-07-29T13:06:34;26.90;99.90
31309;DHT22;17936;52.446;10.840;2022-07-29T13:09:14;27.20;99.90
31309;DHT22;17936;52.446;10.840;2022-07-29T13:11:43;27.20;99.90
31309;DHT22;17936;52.446;10.840;2022-07-29T13:14:11;27.10;99.90
31309;DHT22;17936;52.446;10.840;2022-07-29T13:17:16;27.20;99.90
31309;DHT22;17936;52.446;10.840;2022-07-29T13:22:08;27.30;99.90
31309;DHT22;17936;52.446;10.840;2022-07-29T13:24:48;27.70;99.90
31309;DHT22;17936;52.446;10.840;2022-07-29T13:27:19;28.00;99.90
31309;DHT22;17936;52.446;10.840;2022-07-29T13:29:45;28.90;99.90
31309;DHT22;17936;52.446;10.840;2022-07-29T13:32:11;28.90;99.90
31309;DHT22;17936;52.446;10.840;2022-07-29T13:34:37;28.40;99.90
31309;DHT22;17936;52.446;10.840;2022-07-29T13:37:02;28.50;99.90
31309;DHT22;17936;52.446;10.840;2022-07-29T13:39:28;28.10;99.90
31309;DHT22;17936;52.446;10.840;2022-07-29T13:41:53;28.00;99.90
31309;DHT22;17936;52.446;10.840;2022-07-29T13:44:19;28.40;99.90
31309;DHT22;17936;52.446;10.840;2022-07-29T13:46:44;28.40;99.90
31309;DHT22;17936;52.446;10.840;2022-07-29T13:49:10;27.80;99.90
31309;DHT22;17936;52.446;10.840;2022-07-29T13:51:36;27.60;99.90
31309;DHT22;17936;52.446;10.840;2022-07-29T13:54:02;27.50;99.90
31309;DHT22;17936;52.446;10.840;2022-07-29T13:56:28;27.30;99.90
31309;DHT22;17936;52.446;10.840;2022-07-29T13:58:53;27.10;99.90
31309;DHT22;17936;52.446;10.840;2022-07-29T14:01:19;27.20;99.90
31309;DHT22;17936;52.446;10.840;2022-07-29T14:03:44;27.20;99.90
31309;DHT22;17936;52.446;10.840;2022-07-29T14:06:10;27.10;99.90
31309;DHT22;17936;52.446;10.840;2022-07-29T14:08:35;26.90;99.90
31309;DHT22;17936;52.446;10.840;2022-07-29T14:11:01;26.80;99.90
31309;DHT22;17936;52.446;10.840;2022-07-29T14:13:26;27.00;99.90
31309;DHT22;17936;52.446;10.840;2022-07-29T14:15:52;26.80;99.90
31309;DHT22;17936;52.446;10.840;2022-07-29T14:18:18;26.60;99.90
31309;DHT22;17936;52.446;10.840;2022-07-29T14:20:43;26.60;99.90
31309;DHT22;17936;52.446;10.840;2022-07-29T14:23:09;27.20;99.90
31309;DHT22;17936;52.446;10.840;2022-07-29T14:25:34;27.60;99.90
31309;DHT22;17936;52.446;10.840;2022-07-29T14:28:00;27.40;99.90
31309;DHT22;17936;52.446;10.840;2022-07-29T14:30:25;27.60;99.90
31309;DHT22;17936;52.446;10.840;2022-07-29T14:32:51;27.60;99.90
31309;DHT22;17936;52.446;10.840;2022-07-29T14:35:16;27.50;99.90
31309;DHT22;17936;52.446;10.840;2022-07-29T14:37:42;27.80;99.90
31309;DHT22;17936;52.446;10.840;2022-07-29T14:40:10;27.60;99.90
31309;DHT22;17936;52.446;10.840;2022-07-29T14:42:35;27.90;99.90
31309;DHT22;17936;52.446;10.840;2022-07-29T14:45:03;27.60;99.90
31309;DHT22;17936;52.446;10.840;2022-07-29T14:47:29;27.70;99.90
31309;DHT22;17936;52.446;10.840;2022-07-29T14:49:55;27.40;99.90
31309;DHT22;17936;52.446;10.840;2022-07-29T14:52:20;27.60;99.90
31309;DHT22;17936;52.446;10.840;2022-07-29T14:54:46;27.40;99.90
31309;DHT22;17936;52.446;10.840;2022-07-29T14:57:11;27.40;99.90
31309;DHT22;17936;52.446;10.840;2022-07-29T14:59:37;27.60;99.90
31309;DHT22;17936;52.446;10.840;2022-07-29T15:02:02;27.30;99.90
31309;DHT22;17936;52.446;10.840;2022-07-29T15:04:28;27.40;99.90
31309;DHT22;17936;52.446;10.840;2022-07-29T15:06:53;27.30;99.90
31309;DHT22;17936;52.446;10.840;2022-07-29T15:09:19;27.30;99.90
31309;DHT22;17936;52.446;10.840;2022-07-29T15:11:44;27.10;99.90
31309;DHT22;17936;52.446;10.840;2022-07-29T15:14:10;27.20;99.90
31309;DHT22;17936;52.446;10.840;2022-07-29T15:16:37;27.20;99.90
31309;DHT22;17936;52.446;10.840;2022-07-29T15:19:04;27.10;99.90
31309;DHT22;17936;52.446;10.840;2022-07-29T15:21:29;27.00;99.90
31309;DHT22;17936;52.446;10.840;2022-07-29T15:23:55;27.20;99.90
31309;DHT22;17936;52.446;10.840;2022-07-29T15:26:21;27.10;99.90
31309;DHT22;17936;52.446;10.840;2022-07-29T15:28:46;26.80;99.90
31309;DHT22;17936;52.446;10.840;2022-07-29T15:31:12;26.90;99.90
31309;DHT22;17936;52.446;10.840;2022-07-29T15:33:37;27.00;99.90
31309;DHT22;17936;52.446;10.840;2022-07-29T15:36:03;27.00;99.90
31309;DHT22;17936;52.446;10.840;2022-07-29T15:38:30;27.10;99.90
31309;DHT22;17936;52.446;10.840;2022-07-29T15:40:56;26.90;99.90
31309;DHT22;17936;52.446;10.840;2022-07-29T15:43:22;27.00;99.90
31309;DHT22;17936;52.446;10.840;2022-07-29T15:45:47;26.90;99.90
31309;DHT22;17936;52.446;10.840;2022-07-29T15:48:31;26.90;99.90